Terminal Aerodrome Forecast
Issued by NWS Quad Cities IA IL

Home | Current Version | Previous Version | Text Only | Print | Product List | Glossary On
Versions: 1 2 3 4 5 6 7 8 9 10 11 12 13 14 15 16 17 18 19 20 21 22
000
FTUS43 KDVN 041729
TAFMLI
TAF
KMLI 041729Z 0418/0518 04005KT P6SM BKN025
      TEMPO 0418/0422 SCT025
     FM042300 08005KT P6SM -SHRA VCTS BKN050CB
      TEMPO 0504/0508 2SM TSRA BKN025CB
     FM050800 09004KT 3SM SHRA OVC015
     FM051500 12008KT 5SM BR VCSH OVC020=

USA.gov is the U.S. government's official web portal to all federal, state and local government web resources and services.